Time;durP1;ratioP1;P1;durP2;ratioP2;P2;SDS_P1;SDS_P2;PMS_P1;PMS_P2;Temp;Humidity;BMP_temperature;BMP_pressure;BME280_temperature;BME280_humidity;BME280_pressure;Samples;Min_cycle;Max_cycle;Signal;HPM_P1;HPM_P2
2021/12/30 00:00:04;;;;;;;20.80;9.50;;;;;;;0.34;100.00;98860.78;5114190;28;20205;-61
2021/12/30 00:02:31;;;;;;;20.77;9.77;;;;;;;0.30;100.00;98865.13;5114477;28;20630;-60
2021/12/30 00:04:59;;;;;;;21.23;9.40;;;;;;;0.33;100.00;98859.16;5114146;28;20208;-60
2021/12/30 00:07:27;;;;;;;20.70;9.27;;;;;;;0.26;100.00;98868.59;5114050;27;20668;-70
2021/12/30 00:09:56;;;;;;;20.83;8.90;;;;;;;0.33;100.00;98870.03;5114032;28;20254;-68
2021/12/30 00:12:22;;;;;;;16.90;7.97;;;;;;;0.35;100.00;98875.84;5114063;28;20213;-60
2021/12/30 00:14:49;;;;;;;15.70;7.03;;;;;;;0.36;100.00;98874.16;5114325;28;20197;-70
2021/12/30 00:17:16;;;;;;;18.73;8.40;;;;;;;0.24;100.00;98869.53;5114420;28;20229;-61
2021/12/30 00:19:43;;;;;;;18.30;8.30;;;;;;;0.26;100.00;98871.09;5113766;28;20205;-69
2021/12/30 00:22:10;;;;;;;19.20;8.10;;;;;;;0.23;100.00;98873.72;5113788;28;20628;-60
2021/12/30 00:24:37;;;;;;;17.77;7.83;;;;;;;0.25;100.00;98877.00;5113629;28;20688;-60
2021/12/30 00:27:05;;;;;;;20.47;8.57;;;;;;;0.20;100.00;98889.75;5113664;28;20755;-60
2021/12/30 00:29:33;;;;;;;22.37;8.97;;;;;;;0.28;100.00;98886.16;5113709;28;20193;-70
2021/12/30 00:32:00;;;;;;;21.10;8.70;;;;;;;0.21;100.00;98883.84;5113733;28;20225;-62
2021/12/30 00:34:27;;;;;;;18.27;8.97;;;;;;;0.30;100.00;98889.44;5113545;28;20205;-70
2021/12/30 00:36:54;;;;;;;15.00;7.37;;;;;;;0.29;100.00;98901.19;5113840;28;20228;-61
2021/12/30 00:39:21;;;;;;;18.27;7.90;;;;;;;0.34;100.00;98891.78;5112371;28;20198;-61
2021/12/30 00:41:47;;;;;;;15.50;7.27;;;;;;;0.33;100.00;98894.38;5114060;28;20217;-70
2021/12/30 00:44:16;;;;;;;18.97;8.13;;;;;;;0.32;100.00;98888.53;5113468;28;20224;-60
2021/12/30 00:46:42;;;;;;;22.13;8.40;;;;;;;0.32;100.00;98892.72;5113099;28;20228;-60
2021/12/30 00:49:09;;;;;;;16.43;8.07;;;;;;;0.35;100.00;98895.13;5113154;28;20212;-61
2021/12/30 00:51:36;;;;;;;17.93;7.80;;;;;;;0.38;100.00;98897.56;5113510;28;20221;-69
2021/12/30 00:54:04;;;;;;;18.23;8.20;;;;;;;0.37;100.00;98901.75;5113021;28;20205;-70
2021/12/30 00:56:30;;;;;;;18.60;7.10;;;;;;;0.39;100.00;98909.25;5113135;28;20224;-70
2021/12/30 00:58:57;;;;;;;15.97;8.10;;;;;;;0.42;100.00;98899.09;5113273;28;20220;-61
2021/12/30 01:01:25;;;;;;;12.60;6.20;;;;;;;0.39;100.00;98901.72;5113256;28;20217;-61
2021/12/30 01:03:52;;;;;;;12.80;6.47;;;;;;;0.30;100.00;98914.59;5113160;28;20621;-69
2021/12/30 01:06:19;;;;;;;14.80;6.73;;;;;;;0.19;100.00;98910.72;5112921;28;20241;-60
2021/12/30 01:08:46;;;;;;;13.80;6.40;;;;;;;0.16;100.00;98913.34;5113147;28;20197;-61
2021/12/30 01:11:13;;;;;;;12.13;5.90;;;;;;;0.16;100.00;98913.34;5113081;28;20217;-60
2021/12/30 01:13:44;;;;;;;14.03;6.77;;;;;;;0.20;100.00;98912.38;5112690;28;20205;-61
2021/12/30 01:16:17;;;;;;;14.27;6.13;;;;;;;0.26;100.00;98918.06;5113007;28;20253;-69
2021/12/30 01:19:00;;;;;;;12.87;5.50;;;;;;;0.25;100.00;98917.25;5113014;28;20221;-60
2021/12/30 01:21:29;;;;;;;12.77;5.97;;;;;;;0.18;100.00;98914.13;5112947;28;20220;-61
2021/12/30 01:23:57;;;;;;;10.83;5.53;;;;;;;0.15;100.00;98921.75;5112519;28;20251;-60
2021/12/30 01:26:24;;;;;;;10.17;5.37;;;;;;;0.21;100.00;98929.09;5112852;28;20232;-69
2021/12/30 01:28:51;;;;;;;12.37;5.90;;;;;;;0.29;100.00;98923.84;5112704;28;20615;-69
2021/12/30 01:31:19;;;;;;;11.23;5.53;;;;;;;0.25;100.00;98929.00;5112456;28;20232;-61
2021/12/30 01:33:48;;;;;;;10.73;5.53;;;;;;;0.35;100.00;98927.81;5112695;28;20193;-61
2021/12/30 01:36:15;;;;;;;10.90;5.10;;;;;;;0.43;100.00;98921.66;5112701;28;20221;-60
2021/12/30 01:38:43;;;;;;;11.73;6.20;;;;;;;0.43;100.00;98930.91;5112290;27;20212;-69
2021/12/30 01:41:11;;;;;;;12.50;6.17;;;;;;;0.50;100.00;98932.34;5112321;28;20232;-67
2021/12/30 01:43:38;;;;;;;12.33;5.83;;;;;;;0.48;100.00;98929.06;5112123;28;20201;-69
2021/12/30 01:46:06;;;;;;;11.07;5.60;;;;;;;0.42;100.00;98944.34;5112349;28;20237;-60
2021/12/30 01:48:34;;;;;;;10.17;5.47;;;;;;;0.31;100.00;98941.38;5112122;28;20205;-60
2021/12/30 01:51:03;;;;;;;12.77;5.93;;;;;;;0.32;100.00;98943.84;5111963;28;20217;-60
2021/12/30 01:53:30;;;;;;;11.60;5.23;;;;;;;0.25;100.00;98939.06;5111999;28;20208;-69
2021/12/30 01:55:57;;;;;;;14.13;6.43;;;;;;;0.27;100.00;98943.16;5112161;28;20668;-61
2021/12/30 01:58:24;;;;;;;15.23;6.90;;;;;;;0.28;100.00;98946.50;5112245;28;20224;-60
2021/12/30 02:00:52;;;;;;;10.50;5.77;;;;;;;0.30;100.00;98950.59;5112174;28;20213;-60
2021/12/30 02:03:20;;;;;;;9.97;5.13;;;;;;;0.38;100.00;98953.69;5111917;28;20202;-69
2021/12/30 02:05:48;;;;;;;11.87;5.83;;;;;;;0.42;100.00;98955.22;5112070;28;20697;-60
2021/12/30 02:08:18;;;;;;;10.67;4.57;;;;;;;0.38;100.00;98948.66;5112128;28;20208;-69
2021/12/30 02:10:47;;;;;;;9.53;4.90;;;;;;;0.36;100.00;98944.56;5112090;28;20217;-60
2021/12/30 02:13:16;;;;;;;7.83;4.80;;;;;;;0.40;100.00;98951.94;5111672;28;20201;-61
2021/12/30 02:15:43;;;;;;;8.53;4.60;;;;;;;0.47;100.00;98957.59;5111753;28;20221;-69
2021/12/30 02:18:10;;;;;;;10.87;5.80;;;;;;;0.52;100.00;98954.91;5111473;28;20201;-60
2021/12/30 02:20:51;;;;;;;9.73;4.60;;;;;;;0.46;100.00;98955.94;5111619;28;20229;-61
2021/12/30 02:23:21;;;;;;;7.70;4.50;;;;;;;0.45;100.00;98961.84;5111852;28;20205;-60
2021/12/30 02:25:49;;;;;;;7.53;3.93;;;;;;;0.45;100.00;98954.31;5111633;28;20227;-60
2021/12/30 02:28:17;;;;;;;8.20;4.20;;;;;;;0.45;100.00;98959.34;5111832;28;20200;-69
2021/12/30 02:30:45;;;;;;;7.10;4.33;;;;;;;0.48;100.00;98956.72;5111533;28;20244;-69
2021/12/30 02:33:13;;;;;;;6.83;3.83;;;;;;;0.44;100.00;98960.22;5111576;28;20213;-69
2021/12/30 02:35:40;;;;;;;6.47;3.80;;;;;;;0.46;100.00;98960.97;5111662;28;20225;-70
2021/12/30 02:38:09;;;;;;;9.33;4.40;;;;;;;0.46;100.00;98960.97;5111498;28;20695;-68
2021/12/30 02:40:39;;;;;;;7.87;4.47;;;;;;;0.51;100.00;98966.69;5111435;28;20228;-69
2021/12/30 02:43:10;;;;;;;8.13;4.40;;;;;;;0.55;100.00;98965.69;5111424;28;20220;-60
2021/12/30 02:45:37;;;;;;;7.10;4.47;;;;;;;0.61;100.00;98970.53;5111371;28;20217;-69
2021/12/30 02:48:05;;;;;;;5.97;4.17;;;;;;;0.51;100.00;98978.44;5111123;28;20224;-68
2021/12/30 02:50:32;;;;;;;7.33;3.93;;;;;;;0.48;100.00;98979.34;5111263;28;20228;-69
2021/12/30 02:52:59;;;;;;;7.53;3.93;;;;;;;0.53;100.00;98977.53;5111197;28;20212;-68
2021/12/30 02:55:27;;;;;;;7.57;4.37;;;;;;;0.57;100.00;98986.59;5111223;28;20213;-60
2021/12/30 02:57:53;;;;;;;8.73;4.03;;;;;;;0.59;100.00;98989.88;5111055;28;20611;-60
2021/12/30 03:00:20;;;;;;;7.60;4.40;;;;;;;0.60;100.00;98990.72;5111304;28;20620;-61
2021/12/30 03:02:47;;;;;;;7.07;4.07;;;;;;;0.59;100.00;98997.44;5111853;28;20205;-68
2021/12/30 03:05:18;;;;;;;7.40;4.30;;;;;;;0.61;100.00;99000.72;5115563;27;20650;-60
2021/12/30 03:07:46;;;;;;;8.43;4.63;;;;;;;0.50;100.00;98997.75;5115361;28;20626;-60
2021/12/30 03:10:19;;;;;;;7.43;4.10;;;;;;;0.51;100.00;98999.38;5115132;28;20240;-69
2021/12/30 03:12:52;;;;;;;7.00;3.83;;;;;;;0.45;100.00;99000.41;5115247;28;20209;-69
2021/12/30 03:15:19;;;;;;;8.80;4.53;;;;;;;0.50;100.00;99007.81;5115421;28;20205;-69
2021/12/30 03:17:46;;;;;;;8.77;4.40;;;;;;;0.51;100.00;99003.59;5115481;27;20215;-60
2021/12/30 03:20:14;;;;;;;7.07;4.20;;;;;;;0.46;100.00;99006.25;5114998;28;20201;-67
2021/12/30 03:22:43;;;;;;;8.50;4.50;;;;;;;0.47;100.00;99010.41;5114996;28;20209;-59
2021/12/30 03:25:12;;;;;;;6.97;3.97;;;;;;;0.45;100.00;99019.69;5114773;28;20205;-67
2021/12/30 03:27:39;;;;;;;7.87;4.13;;;;;;;0.45;100.00;99022.22;5114790;28;20242;-60
2021/12/30 03:30:10;;;;;;;6.30;3.83;;;;;;;0.48;100.00;99029.66;5114753;28;20201;-68
2021/12/30 03:32:37;;;;;;;7.47;3.90;;;;;;;0.51;100.00;99026.22;5114817;28;20216;-59
2021/12/30 03:35:06;;;;;;;7.80;3.60;;;;;;;0.48;100.00;99034.69;5114807;28;20691;-63
2021/12/30 03:37:33;;;;;;;7.93;4.20;;;;;;;0.41;100.00;99035.78;5114647;28;20729;-60
2021/12/30 03:40:00;;;;;;;6.93;3.60;;;;;;;0.46;100.00;99036.44;5114552;28;20203;-67
2021/12/30 03:42:27;;;;;;;7.73;3.70;;;;;;;0.51;100.00;99039.63;5114771;28;20217;-59
2021/12/30 03:44:56;;;;;;;6.47;3.53;;;;;;;0.52;100.00;99045.47;5114691;28;20206;-68
2021/12/30 03:47:25;;;;;;;8.53;4.17;;;;;;;0.53;100.00;99047.13;5114644;28;20670;-68
2021/12/30 03:49:52;;;;;;;6.90;3.67;;;;;;;0.52;100.00;99041.25;5114393;28;20208;-61
2021/12/30 03:52:25;;;;;;;8.20;4.10;;;;;;;0.49;100.00;99051.41;5114643;28;20294;-61
2021/12/30 03:54:52;;;;;;;6.47;3.57;;;;;;;0.47;100.00;99053.19;5114546;28;20288;-68
2021/12/30 03:57:19;;;;;;;6.80;3.67;;;;;;;0.46;100.00;99056.53;5114762;28;20778;-68
2021/12/30 03:59:46;;;;;;;6.40;3.67;;;;;;;0.42;100.00;99055.00;5114561;28;20228;-68
2021/12/30 04:02:12;;;;;;;6.83;4.07;;;;;;;0.47;100.00;99062.41;5114050;28;20221;-68
2021/12/30 04:04:41;;;;;;;8.43;4.37;;;;;;;0.33;100.00;99061.16;5114074;28;20201;-60
2021/12/30 04:07:08;;;;;;;8.00;4.10;;;;;;;0.26;100.00;99069.72;5114180;28;20233;-68
2021/12/30 04:09:35;;;;;;;7.63;4.13;;;;;;;0.31;100.00;99062.88;5114011;28;20208;-59
2021/12/30 04:12:02;;;;;;;7.87;4.43;;;;;;;0.35;100.00;99073.66;5114005;28;20661;-68
2021/12/30 04:14:29;;;;;;;8.03;4.57;;;;;;;0.33;100.00;99075.41;5114003;28;20197;-61
2021/12/30 04:16:56;;;;;;;8.17;4.13;;;;;;;0.36;100.00;99075.31;5113913;28;20217;-60
2021/12/30 04:19:23;;;;;;;7.10;4.30;;;;;;;0.32;100.00;99071.25;5114012;28;20201;-61
2021/12/30 04:21:53;;;;;;;8.17;4.13;;;;;;;0.30;100.00;99080.53;5114006;28;20248;-68
2021/12/30 04:24:21;;;;;;;8.13;4.13;;;;;;;0.29;100.00;99073.84;5114044;28;20197;-59
2021/12/30 04:26:50;;;;;;;8.43;4.37;;;;;;;0.14;100.00;99085.19;5114305;28;20280;-67
2021/12/30 04:29:17;;;;;;;9.13;4.87;;;;;;;0.17;100.00;99085.09;5113884;28;20282;-67
2021/12/30 04:31:44;;;;;;;9.03;4.80;;;;;;;0.14;100.00;99091.03;5113797;28;20256;-59
2021/12/30 04:34:11;;;;;;;9.03;4.90;;;;;;;0.21;100.00;99097.56;5113797;28;20194;-66
2021/12/30 04:36:38;;;;;;;9.13;4.80;;;;;;;0.17;100.00;99090.94;5114047;28;20647;-67
2021/12/30 04:39:07;;;;;;;9.80;5.17;;;;;;;0.31;100.00;99102.28;5113651;28;20692;-59
2021/12/30 04:41:33;;;;;;;9.97;5.10;;;;;;;0.32;100.00;99104.78;5113856;28;20217;-68
2021/12/30 04:44:01;;;;;;;10.13;4.73;;;;;;;0.37;100.00;99107.13;5113573;28;20197;-68
2021/12/30 04:46:27;;;;;;;9.90;4.67;;;;;;;0.44;100.00;99111.13;5113825;28;20214;-59
2021/12/30 04:48:54;;;;;;;10.50;5.00;;;;;;;0.44;100.00;99114.47;5113228;28;20229;-60
2021/12/30 04:51:21;;;;;;;11.77;5.67;;;;;;;0.44;100.00;99118.66;5113350;28;20244;-59
2021/12/30 04:53:48;;;;;;;10.10;5.27;;;;;;;0.35;100.00;99123.94;5113313;28;20204;-67
2021/12/30 04:56:16;;;;;;;10.50;4.87;;;;;;;0.28;100.00;99125.03;5113292;28;20647;-60
2021/12/30 04:58:43;;;;;;;9.23;4.93;;;;;;;0.33;100.00;99125.72;5113149;28;20205;-59
2021/12/30 05:01:10;;;;;;;11.37;5.43;;;;;;;0.39;100.00;99133.06;5113369;28;20697;-66
2021/12/30 05:03:38;;;;;;;13.93;5.63;;;;;;;0.25;100.00;99142.72;5113029;28;20208;-59
2021/12/30 05:06:05;;;;;;;10.80;5.27;;;;;;;0.27;100.00;99146.00;5112773;28;20221;-59
2021/12/30 05:08:32;;;;;;;13.13;6.07;;;;;;;0.34;100.00;99157.53;5112927;28;20267;-59
2021/12/30 05:10:59;;;;;;;12.37;5.70;;;;;;;0.44;100.00;99144.63;5112950;28;20229;-67
2021/12/30 05:13:27;;;;;;;17.80;5.77;;;;;;;0.42;100.00;99146.38;5112922;28;20205;-67
2021/12/30 05:15:54;;;;;;;27.43;5.90;;;;;;;0.25;100.00;99147.75;5112864;27;20228;-59
2021/12/30 05:18:29;;;;;;;10.03;4.77;;;;;;;0.35;100.00;99154.13;5113117;28;20205;-58
2021/12/30 05:20:56;;;;;;;17.40;5.20;;;;;;;0.34;100.00;99157.53;5113042;28;20217;-59
2021/12/30 05:23:23;;;;;;;36.10;5.63;;;;;;;0.40;100.00;99162.38;5112635;28;20206;-67
2021/12/30 05:25:50;;;;;;;12.00;4.57;;;;;;;0.47;100.00;99158.81;5112297;28;20229;-68
2021/12/30 05:28:17;;;;;;;12.33;5.33;;;;;;;0.47;100.00;99166.38;5112692;28;20243;-68
2021/12/30 05:30:45;;;;;;;18.70;5.40;;;;;;;0.52;100.00;99168.72;5112485;28;20217;-60
2021/12/30 05:33:12;;;;;;;34.10;6.23;;;;;;;0.55;100.00;99176.19;5112591;27;20193;-68
2021/12/30 05:35:39;;;;;;;37.47;6.23;;;;;;;0.50;100.00;99173.81;5112565;28;20228;-68
2021/12/30 05:38:06;;;;;;;12.97;6.07;;;;;;;0.47;100.00;99183.13;5112436;28;20600;-68
2021/12/30 05:40:34;;;;;;;15.87;6.53;;;;;;;0.44;100.00;99184.06;5112504;28;20574;-68
2021/12/30 05:43:01;;;;;;;17.70;6.30;;;;;;;0.48;100.00;99185.59;5112417;28;20593;-59
2021/12/30 05:45:28;;;;;;;18.17;5.47;;;;;;;0.45;100.00;99188.22;5112117;28;20596;-60
2021/12/30 05:47:56;;;;;;;12.47;4.97;;;;;;;0.46;100.00;99197.41;5112290;28;20237;-68
2021/12/30 05:50:28;;;;;;;14.57;5.77;;;;;;;0.46;100.00;99197.41;5112386;28;20625;-68
2021/12/30 05:52:55;;;;;;;12.90;5.50;;;;;;;0.37;100.00;99195.16;5112158;28;20197;-68
2021/12/30 05:55:22;;;;;;;11.13;5.17;;;;;;;0.40;100.00;99197.59;5112272;28;20224;-60
2021/12/30 05:57:49;;;;;;;15.40;5.57;;;;;;;0.37;100.00;99193.47;5112071;28;20200;-68
2021/12/30 06:00:18;;;;;;;16.00;5.53;;;;;;;0.39;100.00;99193.44;5112247;28;20200;-68
2021/12/30 06:02:45;;;;;;;17.13;6.07;;;;;;;0.43;100.00;99202.53;5112075;28;20208;-68
2021/12/30 06:05:14;;;;;;;18.77;6.50;;;;;;;0.48;100.00;99210.75;5111923;28;20193;-60
2021/12/30 06:07:41;;;;;;;14.97;6.30;;;;;;;0.42;100.00;99221.81;5111864;28;20701;-60
2021/12/30 06:10:09;;;;;;;18.17;7.37;;;;;;;0.46;100.00;99232.59;5112038;28;20300;-68
2021/12/30 06:12:36;;;;;;;27.87;8.13;;;;;;;0.44;100.00;99235.19;5112127;28;20205;-60
2021/12/30 06:15:03;;;;;;;21.07;8.17;;;;;;;0.45;100.00;99236.81;5111659;28;20193;-67
2021/12/30 06:17:30;;;;;;;21.00;7.93;;;;;;;0.38;100.00;99247.13;5111860;28;20225;-66
2021/12/30 06:19:57;;;;;;;20.70;6.93;;;;;;;0.46;100.00;99257.75;5111508;28;20202;-59
2021/12/30 06:22:26;;;;;;;14.83;6.47;;;;;;;0.43;100.00;99262.88;5111544;28;20220;-68
2021/12/30 06:24:52;;;;;;;27.83;8.23;;;;;;;0.38;100.00;99269.75;5111417;28;20205;-68
2021/12/30 06:27:19;;;;;;;19.67;7.77;;;;;;;0.47;100.00;99279.56;5111608;28;20218;-59
2021/12/30 06:29:46;;;;;;;23.10;10.33;;;;;;;0.49;100.00;99282.81;5111511;28;20582;-59
2021/12/30 06:32:13;;;;;;;24.47;10.30;;;;;;;0.56;100.00;99293.56;5111903;28;20229;-59
2021/12/30 06:34:40;;;;;;;29.07;10.53;;;;;;;0.56;100.00;99301.94;5111350;27;20205;-60
2021/12/30 06:37:07;;;;;;;49.10;11.87;;;;;;;0.62;100.00;99301.75;5110845;28;20307;-69
2021/12/30 06:39:35;;;;;;;63.27;11.63;;;;;;;0.68;100.00;99314.16;5110949;28;20193;-69
2021/12/30 06:42:02;;;;;;;36.50;9.87;;;;;;;0.74;100.00;99317.38;5111305;28;20233;-60
2021/12/30 06:44:28;;;;;;;61.37;12.50;;;;;;;0.81;100.00;99316.31;5111063;28;20593;-67
2021/12/30 06:46:58;;;;;;;40.47;12.00;;;;;;;0.75;100.00;99319.84;5111338;28;20247;-67
2021/12/30 06:49:25;;;;;;;32.97;9.93;;;;;;;0.73;100.00;99320.75;5111016;28;20669;-60
2021/12/30 06:51:52;;;;;;;53.83;11.37;;;;;;;0.73;100.00;99330.81;5111745;28;20303;-59
2021/12/30 06:54:19;;;;;;;47.07;10.73;;;;;;;0.79;100.00;99336.50;5111194;28;20689;-59
2021/12/30 06:56:47;;;;;;;35.60;9.47;;;;;;;0.75;100.00;99334.94;5111625;28;20236;-67
2021/12/30 06:59:15;;;;;;;31.10;9.17;;;;;;;0.71;100.00;99347.66;5111041;28;20197;-59
2021/12/30 07:01:44;;;;;;;33.53;10.10;;;;;;;0.73;100.00;99345.91;5111479;28;20260;-68
2021/12/30 07:04:11;;;;;;;44.07;10.53;;;;;;;0.71;100.00;99350.19;5111134;28;20209;-67
2021/12/30 07:06:37;;;;;;;24.73;10.00;;;;;;;0.66;100.00;99366.22;5110989;28;20220;-59
2021/12/30 07:09:05;;;;;;;34.20;9.97;;;;;;;0.67;100.00;99362.84;5110844;28;20225;-59
2021/12/30 07:11:32;;;;;;;71.53;12.73;;;;;;;0.85;100.00;99373.28;5110928;28;20224;-67
2021/12/30 07:14:00;;;;;;;42.07;11.60;;;;;;;0.89;100.00;99383.19;5110718;28;20197;-60
2021/12/30 07:16:27;;;;;;;51.17;10.80;;;;;;;0.82;100.00;99385.94;5110863;28;20637;-59
2021/12/30 07:18:54;;;;;;;46.63;10.67;;;;;;;0.86;100.00;99387.50;5110821;28;20204;-67
2021/12/30 07:21:21;;;;;;;40.33;11.37;;;;;;;0.94;100.00;99392.31;5110740;28;20827;-68
2021/12/30 07:23:47;;;;;;;35.40;11.33;;;;;;;0.94;100.00;99387.28;5111257;28;20201;-67
2021/12/30 07:26:14;;;;;;;68.20;12.07;;;;;;;0.96;100.00;99393.94;5110811;28;20729;-59
2021/12/30 07:28:41;;;;;;;86.67;12.20;;;;;;;1.03;100.00;99400.44;5110772;28;20260;-60
2021/12/30 07:31:10;;;;;;;55.57;9.63;;;;;;;1.18;100.00;99400.88;5110890;28;20248;-67
2021/12/30 07:33:38;;;;;;;42.83;8.23;;;;;;;1.20;100.00;99409.22;5110776;28;20690;-68
2021/12/30 07:36:05;;;;;;;66.37;10.37;;;;;;;1.23;100.00;99412.47;5110825;28;20218;-64
2021/12/30 07:38:32;;;;;;;25.70;8.20;;;;;;;1.29;100.00;99421.53;5110703;28;20196;-67
2021/12/30 07:40:59;;;;;;;43.17;9.77;;;;;;;1.32;100.00;99418.94;5110765;28;20594;-60
2021/12/30 07:43:26;;;;;;;92.47;10.80;;;;;;;1.30;100.00;99418.13;5110822;28;20643;-67
2021/12/30 07:45:53;;;;;;;29.57;8.50;;;;;;;1.32;100.00;99422.25;5110402;28;20718;-68
2021/12/30 07:48:21;;;;;;;44.27;8.63;;;;;;;1.34;100.00;99434.84;5111056;28;20754;-59
2021/12/30 07:50:49;;;;;;;58.30;8.87;;;;;;;1.29;100.00;99436.66;5114727;28;20225;-59
2021/12/30 07:53:16;;;;;;;48.77;9.23;;;;;;;1.32;100.00;99434.03;5114492;28;20208;-68
2021/12/30 07:55:44;;;;;;;43.47;8.40;;;;;;;1.13;100.00;99439.63;5114674;27;20229;-60
2021/12/30 07:58:11;;;;;;;43.07;9.57;;;;;;;1.11;100.00;99443.84;5114484;28;20201;-67
2021/12/30 08:00:38;;;;;;;45.80;9.13;;;;;;;1.18;100.00;99438.66;5114381;28;20643;-67
2021/12/30 08:03:04;;;;;;;42.20;9.30;;;;;;;1.19;100.00;99447.84;5114312;28;20674;-68
2021/12/30 08:05:33;;;;;;;59.77;8.37;;;;;;;1.18;100.00;99453.75;5114348;28;20604;-67
2021/12/30 08:08:00;;;;;;;50.83;7.63;;;;;;;1.13;100.00;99462.28;5114383;28;20598;-59
2021/12/30 08:10:28;;;;;;;51.13;7.77;;;;;;;1.03;100.00;99468.41;5114132;28;20220;-67
2021/12/30 08:12:55;;;;;;;30.13;7.00;;;;;;;1.01;100.00;99472.66;5114045;28;20201;-68
2021/12/30 08:15:24;;;;;;;37.73;7.70;;;;;;;1.11;100.00;99474.06;5113974;28;20197;-59
2021/12/30 08:17:52;;;;;;;25.67;7.97;;;;;;;1.08;100.00;99476.69;5114059;28;20196;-59
2021/12/30 08:20:21;;;;;;;33.40;7.33;;;;;;;1.09;100.00;99483.34;5114282;28;20551;-67
2021/12/30 08:22:51;;;;;;;25.93;7.87;;;;;;;1.13;100.00;99484.09;5114084;28;20194;-59
2021/12/30 08:25:19;;;;;;;29.00;7.43;;;;;;;1.07;100.00;99486.78;5113961;28;20277;-60
2021/12/30 08:27:46;;;;;;;38.00;8.13;;;;;;;1.01;100.00;99491.97;5114076;28;20699;-68
2021/12/30 08:30:15;;;;;;;46.63;9.33;;;;;;;1.08;100.00;99493.47;5113615;28;20201;-59
2021/12/30 08:32:43;;;;;;;37.77;8.43;;;;;;;1.10;100.00;99489.22;5114308;28;20218;-67
2021/12/30 08:35:12;;;;;;;39.73;8.73;;;;;;;1.19;100.00;99493.16;5113833;28;20205;-61
2021/12/30 08:37:41;;;;;;;44.00;8.97;;;;;;;1.22;100.00;99498.13;5113613;28;20197;-67
2021/12/30 08:40:11;;;;;;;31.80;8.57;;;;;;;1.35;100.00;99507.81;5113423;28;20949;-67
2021/12/30 08:42:39;;;;;;;38.60;8.33;;;;;;;1.39;100.00;99507.72;5113475;27;20208;-67
2021/12/30 08:45:07;;;;;;;54.23;9.53;;;;;;;1.21;100.00;99509.06;5113161;28;20274;-59
2021/12/30 08:47:34;;;;;;;35.47;8.20;;;;;;;1.04;100.00;99512.84;5113714;28;20648;-59
2021/12/30 08:50:02;;;;;;;39.43;9.27;;;;;;;1.15;100.00;99519.31;5113261;28;20236;-59
2021/12/30 08:52:30;;;;;;;47.30;9.30;;;;;;;1.21;100.00;99521.66;5113321;28;20722;-67
2021/12/30 08:54:59;;;;;;;59.87;10.63;;;;;;;1.15;100.00;99525.16;5113387;28;20201;-67
2021/12/30 08:57:28;;;;;;;46.70;8.17;;;;;;;1.04;100.00;99522.94;5113183;28;20266;-66
2021/12/30 08:59:55;;;;;;;59.33;10.70;;;;;;;0.97;100.00;99520.63;5112992;28;20201;-65
2021/12/30 09:02:21;;;;;;;73.13;10.53;;;;;;;1.16;100.00;99526.00;5112583;28;20225;-59
2021/12/30 09:04:48;;;;;;;52.30;10.97;;;;;;;1.12;100.00;99521.03;5113557;28;20202;-59
2021/12/30 09:07:18;;;;;;;89.33;11.33;;;;;;;1.16;100.00;99521.78;5113439;28;20759;-59
2021/12/30 09:09:46;;;;;;;56.43;10.90;;;;;;;1.10;100.00;99522.75;5112800;28;20268;-59
2021/12/30 09:12:13;;;;;;;45.57;11.00;;;;;;;1.08;100.00;99537.09;5112913;28;20307;-59
2021/12/30 09:14:41;;;;;;;97.47;13.67;;;;;;;1.19;100.00;99531.75;5113211;28;20209;-59
2021/12/30 09:17:08;;;;;;;56.77;10.70;;;;;;;1.29;100.00;99533.19;5112591;28;20752;-59
2021/12/30 09:19:35;;;;;;;45.57;10.47;;;;;;;1.20;100.00;99537.66;5113047;28;20205;-66
2021/12/30 09:22:02;;;;;;;59.40;12.03;;;;;;;1.25;100.00;99540.84;5112794;28;20221;-59
2021/12/30 09:24:29;;;;;;;56.53;11.50;;;;;;;1.25;100.00;99538.34;5112589;28;20705;-67
2021/12/30 09:26:56;;;;;;;52.90;12.13;;;;;;;1.31;100.00;99550.78;5112595;28;20229;-66
2021/12/30 09:29:23;;;;;;;65.70;11.13;;;;;;;1.36;100.00;99553.97;5112543;28;20236;-59
2021/12/30 09:31:52;;;;;;;138.47;15.97;;;;;;;1.30;100.00;99559.19;5112881;28;20233;-66
2021/12/30 09:34:20;;;;;;;65.20;14.27;;;;;;;1.29;100.00;99565.09;5112899;28;20197;-59
2021/12/30 09:36:47;;;;;;;119.50;14.20;;;;;;;1.38;100.00;99562.34;5112653;28;20221;-59
2021/12/30 09:39:16;;;;;;;76.00;13.90;;;;;;;1.35;100.00;99573.31;5112272;28;20563;-59
2021/12/30 09:41:44;;;;;;;75.40;14.67;;;;;;;1.32;100.00;99568.38;5112694;28;20244;-59
2021/12/30 09:44:14;;;;;;;62.90;13.87;;;;;;;1.45;100.00;99570.53;5112183;28;20233;-67
2021/12/30 09:46:42;;;;;;;108.50;14.20;;;;;;;1.44;100.00;99569.72;5112801;28;20228;-66
2021/12/30 09:49:13;;;;;;;136.67;15.50;;;;;;;1.58;100.00;99565.13;5111988;28;20244;-59
2021/12/30 09:51:41;;;;;;;231.13;19.03;;;;;;;1.42;100.00;99563.91;5112661;28;20232;-67
2021/12/30 09:54:08;;;;;;;40.50;12.70;;;;;;;1.59;100.00;99565.94;5112118;28;20220;-58
2021/12/30 09:56:35;;;;;;;106.00;14.93;;;;;;;1.67;100.00;99568.28;5111992;28;20308;-67
2021/12/30 09:59:02;;;;;;;106.10;14.53;;;;;;;1.68;100.00;99572.44;5112175;28;20234;-67
2021/12/30 10:01:29;;;;;;;132.10;15.07;;;;;;;1.63;100.00;99574.25;5111923;28;20213;-58
2021/12/30 10:03:57;;;;;;;84.33;15.07;;;;;;;1.55;100.00;99575.31;5111765;28;20197;-67
2021/12/30 10:06:26;;;;;;;103.47;14.80;;;;;;;1.63;100.00;99574.25;5112037;28;20437;-67
2021/12/30 10:08:55;;;;;;;171.43;16.73;;;;;;;1.60;100.00;99577.72;5111980;28;20225;-66
2021/12/30 10:11:22;;;;;;;58.33;12.43;;;;;;;1.46;100.00;99580.59;5111755;28;20225;-67
2021/12/30 10:13:51;;;;;;;47.43;11.03;;;;;;;1.52;100.00;99575.38;5112292;28;20220;-58
2021/12/30 10:16:19;;;;;;;122.67;14.67;;;;;;;1.66;100.00;99584.25;5111844;28;20213;-58
2021/12/30 10:18:48;;;;;;;92.87;14.20;;;;;;;1.65;100.00;99585.13;5111818;28;20205;-66
2021/12/30 10:21:18;;;;;;;57.13;12.73;;;;;;;1.66;100.00;99586.75;5111525;28;20614;-59
2021/12/30 10:23:48;;;;;;;73.10;11.47;;;;;;;1.66;100.00;99587.63;5111980;28;20490;-59
2021/12/30 10:26:15;;;;;;;61.97;11.60;;;;;;;1.57;100.00;99578.63;5111828;28;20225;-64
2021/12/30 10:28:44;;;;;;;36.67;10.27;;;;;;;1.70;100.00;99586.66;5111449;28;20233;-66
2021/12/30 10:31:19;;;;;;;72.87;12.33;;;;;;;1.85;100.00;99582.88;5111415;28;20233;-65
2021/12/30 10:33:50;;;;;;;88.33;13.23;;;;;;;1.87;100.00;99581.13;5111584;28;20197;-66
2021/12/30 10:36:17;;;;;;;138.47;13.40;;;;;;;1.95;100.00;99586.78;5112037;28;20277;-66
2021/12/30 10:38:46;;;;;;;48.07;13.17;;;;;;;2.01;100.00;99586.59;5111439;28;20193;-57
2021/12/30 10:41:13;;;;;;;66.47;12.17;;;;;;;2.02;100.00;99583.19;5111513;28;20225;-58
2021/12/30 10:43:46;;;;;;;96.93;12.50;;;;;;;2.19;100.00;99579.38;5111256;28;20216;-57
2021/12/30 10:46:17;;;;;;;154.20;13.63;;;;;;;2.19;100.00;99576.84;5111265;28;20290;-58
2021/12/30 10:48:49;;;;;;;66.40;9.00;;;;;;;2.16;100.00;99581.97;5111228;28;20201;-58
2021/12/30 10:51:18;;;;;;;92.83;10.53;;;;;;;2.07;100.00;99577.22;5111254;28;20221;-65
2021/12/30 10:53:48;;;;;;;183.93;12.80;;;;;;;1.92;100.00;99583.50;5111477;28;20213;-65
2021/12/30 10:56:29;;;;;;;102.30;11.13;;;;;;;1.86;100.00;99584.50;5111139;28;20611;-57
2021/12/30 10:59:09;;;;;;;97.63;10.87;;;;;;;1.91;100.00;99587.72;5111229;28;20233;-65
2021/12/30 11:01:39;;;;;;;120.27;11.33;;;;;;;1.99;100.00;99580.78;5111029;28;20236;-65
2021/12/30 11:04:06;;;;;;;74.23;10.20;;;;;;;2.00;100.00;99581.59;5110899;28;20223;-65
2021/12/30 11:06:33;;;;;;;96.73;11.07;;;;;;;1.82;100.00;99590.53;5111225;28;20225;-58
2021/12/30 11:09:11;;;;;;;148.13;11.67;;;;;;;1.84;100.00;99581.22;5110947;28;20710;-65
2021/12/30 11:11:41;;;;;;;139.00;12.37;;;;;;;1.81;100.00;99592.22;5111110;28;20506;-57
2021/12/30 11:14:11;;;;;;;100.97;10.33;;;;;;;1.92;100.00;99596.97;5111012;28;20205;-57
2021/12/30 11:17:01;;;;;;;79.57;10.07;;;;;;;1.97;100.00;99597.63;5111289;28;20349;-57
2021/12/30 11:19:30;;;;;;;61.77;8.80;;;;;;;1.85;100.00;99598.00;5110805;28;20197;-56
2021/12/30 11:21:59;;;;;;;124.03;12.30;;;;;;;1.75;100.00;99594.09;5110671;28;20233;-65
2021/12/30 11:24:28;;;;;;;231.17;14.70;;;;;;;1.78;100.00;99591.47;5112485;28;20201;-58
2021/12/30 11:26:56;;;;;;;90.03;10.73;;;;;;;1.83;100.00;99599.72;5114713;28;20233;-57